createdAt,value
2017-11-30T00:02:42.120Z,9.15
2017-11-30T00:05:52.113Z,8.70
2017-11-30T00:09:02.069Z,10.38
2017-11-30T00:12:12.189Z,9.88
2017-11-30T00:15:22.176Z,10.07
2017-11-30T00:18:32.292Z,12.18
2017-11-30T00:21:42.437Z,12.45
2017-11-30T00:24:53.536Z,7.95
2017-11-30T00:28:04.456Z,10.15
2017-11-30T00:31:15.297Z,9.82
2017-11-30T00:34:25.222Z,11.15
2017-11-30T00:37:35.096Z,9.15
2017-11-30T00:40:44.592Z,10.80
2017-11-30T00:43:54.346Z,9.82
2017-11-30T00:47:04.370Z,10.98
2017-11-30T00:50:14.259Z,9.65
2017-11-30T00:53:24.092Z,9.25
2017-11-30T00:56:34.837Z,11.27
2017-11-30T00:59:44.997Z,10.15
2017-11-30T01:02:55.164Z,9.90
2017-11-30T01:06:05.401Z,9.48
2017-11-30T01:09:15.351Z,11.20
2017-11-30T01:12:25.297Z,11.90
2017-11-30T01:15:35.289Z,11.57
2017-11-30T01:18:45.060Z,10.98
2017-11-30T01:21:55.158Z,9.48
2017-11-30T01:25:05.852Z,9.10
2017-11-30T01:28:16.008Z,9.73
2017-11-30T01:31:27.543Z,12.15
2017-11-30T01:34:37.261Z,11.80
2017-11-30T01:37:47.185Z,14.38
2017-11-30T01:40:57.648Z,10.93
2017-11-30T01:44:07.881Z,10.80
2017-11-30T01:47:17.813Z,10.15
2017-11-30T01:50:27.707Z,9.80
2017-11-30T01:53:37.602Z,9.50
2017-11-30T01:56:48.053Z,11.10
2017-11-30T01:59:58.334Z,10.65
2017-11-30T02:03:08.177Z,14.15
2017-11-30T02:06:18.120Z,9.50
2017-11-30T02:09:27.800Z,8.82
2017-11-30T02:12:38.090Z,9.90
2017-11-30T02:15:48.026Z,10.32
2017-11-30T02:18:58.053Z,11.02
2017-11-30T02:22:07.841Z,8.90
2017-11-30T02:25:17.636Z,8.60
2017-11-30T02:28:28.116Z,9.93
2017-11-30T02:31:38.220Z,10.80
2017-11-30T02:34:48.567Z,8.88
2017-11-30T02:37:58.612Z,9.73
2017-11-30T02:41:08.210Z,10.20
2017-11-30T02:44:18.635Z,9.73
2017-11-30T02:47:30.978Z,11.43
2017-11-30T02:50:41.377Z,8.32
2017-11-30T02:53:50.888Z,9.93
2017-11-30T02:57:00.738Z,9.73
2017-11-30T03:00:10.380Z,10.63
2017-11-30T03:03:21.136Z,11.65
2017-11-30T03:06:31.400Z,11.63
2017-11-30T03:09:40.980Z,9.75
2017-11-30T03:12:51.336Z,8.45
2017-11-30T03:16:01.293Z,10.77
2017-11-30T03:19:11.136Z,9.90
2017-11-30T03:22:21.347Z,9.27
2017-11-30T03:25:31.160Z,12.48
2017-11-30T03:28:41.046Z,10.27
2017-11-30T03:31:51.235Z,8.48
2017-11-30T03:35:01.052Z,13.80
2017-11-30T03:38:11.529Z,12.48
2017-11-30T03:41:22.025Z,10.23
2017-11-30T03:44:32.411Z,14.13
2017-11-30T03:47:42.369Z,13.02
2017-11-30T03:50:52.292Z,10.30
2017-11-30T03:54:02.207Z,12.10
2017-11-30T03:57:12.208Z,10.48
2017-11-30T04:00:22.366Z,11.27
2017-11-30T04:03:32.488Z,10.95
2017-11-30T04:06:42.328Z,10.65
2017-11-30T04:09:52.079Z,11.25
2017-11-30T04:13:02.455Z,9.55
2017-11-30T04:16:12.890Z,12.40
2017-11-30T04:19:22.925Z,15.13
2017-11-30T04:22:32.859Z,11.02
2017-11-30T04:25:42.783Z,12.75
2017-11-30T04:28:53.449Z,11.07
2017-11-30T04:32:03.943Z,11.90
2017-11-30T04:35:13.743Z,13.45
2017-11-30T04:38:23.461Z,11.80
2017-11-30T04:41:33.392Z,11.88
2017-11-30T04:44:43.256Z,10.93
2017-11-30T04:47:53.523Z,13.15
2017-11-30T04:51:03.627Z,10.40
2017-11-30T04:54:13.588Z,11.30
2017-11-30T04:57:24.132Z,11.65
2017-11-30T05:00:34.317Z,9.95
2017-11-30T05:03:44.291Z,11.93
2017-11-30T05:06:54.633Z,11.68
2017-11-30T05:10:04.557Z,13.15
2017-11-30T05:13:14.945Z,11.93
2017-11-30T05:16:25.623Z,10.00
2017-11-30T05:19:35.443Z,11.02
2017-11-30T05:22:45.304Z,11.23
2017-11-30T05:25:54.913Z,11.40
2017-11-30T05:29:05.317Z,11.68
2017-11-30T05:32:15.211Z,10.80
2017-11-30T05:35:25.238Z,12.32
2017-11-30T05:38:35.032Z,9.30
2017-11-30T05:41:45.818Z,12.15
2017-11-30T05:44:56.612Z,10.27
2017-11-30T05:48:06.646Z,11.38
2017-11-30T05:51:17.294Z,11.27
2017-11-30T05:54:27.438Z,10.50
2017-11-30T05:57:38.189Z,10.32
2017-11-30T06:00:48.493Z,12.23
2017-11-30T06:04:00.002Z,8.95
2017-11-30T06:07:10.337Z,9.88
2017-11-30T06:10:20.196Z,11.30
2017-11-30T06:13:30.212Z,10.05
2017-11-30T06:16:40.036Z,9.13
2017-11-30T06:19:49.895Z,11.27
2017-11-30T06:23:00.729Z,9.63
2017-11-30T06:26:11.550Z,11.43
2017-11-30T06:29:21.624Z,9.43
2017-11-30T06:32:31.621Z,10.75
2017-11-30T06:35:42.296Z,11.38
2017-11-30T06:38:52.852Z,11.98
2017-11-30T06:42:02.364Z,10.32
2017-11-30T06:45:12.190Z,11.35
2017-11-30T06:48:21.850Z,13.00
2017-11-30T06:51:32.081Z,11.10
2017-11-30T06:54:42.807Z,11.60
2017-11-30T06:57:52.823Z,11.02
2017-11-30T07:01:02.963Z,9.57
2017-11-30T07:04:12.902Z,11.18
2017-11-30T07:07:23.057Z,10.23
2017-11-30T07:10:33.368Z,10.57
2017-11-30T07:13:43.857Z,9.82
2017-11-30T07:16:54.429Z,12.30
2017-11-30T07:20:03.949Z,12.93
2017-11-30T07:23:14.288Z,11.27
2017-11-30T07:26:24.172Z,11.23
2017-11-30T07:29:34.559Z,11.38
2017-11-30T07:32:44.129Z,9.95
2017-11-30T07:35:54.078Z,11.80
2017-11-30T07:39:03.485Z,11.00
2017-11-30T07:42:13.412Z,12.37
2017-11-30T07:45:24.151Z,12.35
2017-11-30T07:48:34.424Z,11.57
2017-11-30T07:51:45.121Z,11.88
2017-11-30T07:54:55.395Z,12.77
2017-11-30T07:58:06.084Z,12.73
2017-11-30T08:01:16.352Z,12.45
2017-11-30T08:04:26.604Z,16.95
2017-11-30T08:07:37.285Z,12.23
2017-11-30T08:10:47.646Z,12.85
2017-11-30T08:13:58.346Z,11.52
2017-11-30T08:17:08.280Z,14.38
2017-11-30T08:20:18.103Z,13.52
2017-11-30T08:23:28.866Z,12.23
2017-11-30T08:26:39.274Z,12.40
2017-11-30T08:29:49.082Z,12.80
2017-11-30T08:32:59.042Z,12.27
2017-11-30T08:36:08.995Z,12.45
2017-11-30T08:39:19.406Z,11.50
2017-11-30T08:42:29.499Z,11.60
2017-11-30T08:45:38.947Z,13.05
2017-11-30T08:48:49.289Z,11.75
2017-11-30T08:51:59.926Z,9.23
2017-11-30T08:55:10.233Z,10.13
2017-11-30T08:58:20.743Z,11.18
2017-11-30T09:01:30.978Z,9.50
2017-11-30T09:04:41.054Z,12.52
2017-11-30T09:07:51.833Z,10.63
2017-11-30T09:11:01.891Z,10.55
2017-11-30T09:14:11.674Z,10.85
2017-11-30T09:17:21.604Z,10.52
2017-11-30T09:20:31.385Z,10.35
2017-11-30T09:23:40.921Z,10.55
2017-11-30T09:26:51.345Z,10.18
2017-11-30T09:30:01.464Z,10.30
2017-11-30T09:33:11.430Z,9.15
2017-11-30T09:36:20.958Z,9.05
2017-11-30T09:39:30.664Z,10.52
2017-11-30T09:42:40.747Z,10.00
2017-11-30T09:45:50.617Z,11.73
2017-11-30T09:49:00.709Z,10.52
2017-11-30T09:52:10.843Z,8.18
2017-11-30T09:55:20.874Z,10.10
2017-11-30T09:58:30.711Z,9.73
2017-11-30T10:01:40.298Z,10.40
2017-11-30T10:04:50.986Z,8.43
2017-11-30T10:08:01.928Z,10.05
2017-11-30T10:11:11.857Z,11.10
2017-11-30T10:14:22.546Z,12.45
2017-11-30T10:17:32.281Z,9.30
2017-11-30T10:20:42.469Z,9.18
2017-11-30T10:23:52.221Z,8.98
2017-11-30T10:27:02.413Z,10.82
2017-11-30T10:30:12.520Z,9.70
2017-11-30T10:33:23.073Z,8.15
2017-11-30T10:36:33.130Z,9.68
2017-11-30T10:39:42.908Z,9.48
2017-11-30T10:42:52.754Z,8.88
2017-11-30T10:46:02.767Z,9.00
2017-11-30T10:49:12.460Z,10.30
2017-11-30T10:52:22.207Z,8.27
2017-11-30T10:55:32.052Z,8.85
2017-11-30T10:58:41.962Z,8.18
2017-11-30T11:01:52.425Z,8.38
2017-11-30T11:05:02.170Z,9.27
2017-11-30T11:08:12.684Z,6.35
2017-11-30T11:11:22.791Z,9.15
2017-11-30T11:14:33.533Z,6.70
2017-11-30T11:17:44.156Z,8.10
2017-11-30T11:20:54.186Z,8.60
2017-11-30T11:24:04.021Z,9.57
2017-11-30T11:27:13.681Z,8.27
2017-11-30T11:30:23.443Z,10.73
2017-11-30T11:33:33.416Z,9.45
2017-11-30T11:36:43.226Z,8.85
2017-11-30T11:39:53.367Z,8.30
2017-11-30T11:43:03.844Z,11.38
2017-11-30T11:46:13.710Z,9.05
2017-11-30T11:49:23.750Z,6.80
2017-11-30T11:52:33.773Z,9.00
2017-11-30T11:55:44.548Z,7.47
2017-11-30T11:58:54.273Z,8.85
2017-11-30T12:02:04.437Z,8.93
2017-11-30T12:05:14.896Z,10.18
2017-11-30T12:08:25.535Z,8.70
2017-11-30T12:11:36.052Z,6.50
2017-11-30T12:14:45.836Z,6.57
2017-11-30T12:17:55.657Z,6.15
2017-11-30T12:21:05.501Z,7.43
2017-11-30T12:24:15.025Z,6.65
2017-11-30T12:27:25.682Z,8.65
2017-11-30T12:30:35.779Z,8.63
2017-11-30T12:33:47.280Z,7.75
2017-11-30T12:36:58.243Z,8.55
2017-11-30T12:40:09.065Z,7.40
2017-11-30T12:43:19.864Z,7.62
2017-11-30T12:46:30.067Z,7.22
2017-11-30T12:49:40.687Z,7.50
2017-11-30T12:52:51.380Z,8.05
2017-11-30T12:56:01.326Z,10.30
2017-11-30T12:59:11.372Z,9.27
2017-11-30T13:02:21.222Z,10.20
2017-11-30T13:05:31.687Z,10.43
2017-11-30T13:08:41.793Z,8.07
2017-11-30T13:11:51.581Z,5.97
2017-11-30T13:15:01.530Z,4.45
2017-11-30T13:18:11.243Z,8.30
2017-11-30T13:21:20.800Z,8.18
2017-11-30T13:24:31.138Z,9.80
2017-11-30T13:27:40.939Z,6.37
2017-11-30T13:30:52.462Z,8.13
2017-11-30T13:34:02.244Z,9.68
2017-11-30T13:37:11.952Z,8.43
2017-11-30T13:40:21.472Z,9.00
2017-11-30T13:43:32.230Z,6.00
2017-11-30T13:46:42.831Z,11.45
2017-11-30T13:49:52.621Z,10.35
2017-11-30T13:53:02.551Z,9.20
2017-11-30T13:56:13.125Z,8.82
2017-11-30T13:59:23.168Z,7.90
2017-11-30T14:02:33.110Z,13.23
2017-11-30T14:05:43.260Z,11.27
2017-11-30T14:08:52.978Z,9.65
2017-11-30T14:12:02.836Z,5.35
2017-11-30T14:15:12.684Z,10.25
2017-11-30T14:18:23.313Z,8.93
2017-11-30T14:21:33.730Z,8.73
2017-11-30T14:24:43.606Z,11.35
2017-11-30T14:27:53.591Z,11.85
2017-11-30T14:31:03.445Z,11.10
2017-11-30T14:34:13.424Z,9.25
2017-11-30T14:37:23.923Z,11.05
2017-11-30T14:40:33.840Z,12.43
2017-11-30T14:43:44.553Z,11.55
2017-11-30T14:46:55.236Z,9.90
2017-11-30T14:50:04.963Z,10.13
2017-11-30T14:53:14.985Z,8.63
2017-11-30T14:56:24.810Z,9.95
2017-11-30T14:59:34.679Z,10.00
2017-11-30T15:02:44.539Z,8.52
2017-11-30T15:05:54.378Z,10.25
2017-11-30T15:09:04.334Z,9.68
2017-11-30T15:12:14.247Z,10.82
2017-11-30T15:15:24.346Z,9.75
2017-11-30T15:18:34.031Z,12.75
2017-11-30T15:21:43.774Z,9.95
2017-11-30T15:24:53.654Z,9.75
2017-11-30T15:28:03.685Z,9.57
2017-11-30T15:31:13.750Z,9.13
2017-11-30T15:34:23.910Z,12.15
2017-11-30T15:37:34.759Z,14.30
2017-11-30T15:40:45.055Z,10.05
2017-11-30T15:43:55.185Z,16.85
2017-11-30T15:47:05.168Z,17.10
2017-11-30T15:50:15.178Z,12.73
2017-11-30T15:53:24.982Z,14.48
2017-11-30T15:56:35.607Z,16.20
2017-11-30T15:59:45.769Z,11.27
2017-11-30T16:02:56.509Z,12.68
2017-11-30T16:06:06.514Z,13.80
2017-11-30T16:09:16.400Z,11.38
2017-11-30T16:12:27.908Z,12.15
2017-11-30T16:15:38.400Z,11.88
2017-11-30T16:18:48.302Z,11.85
2017-11-30T16:21:58.129Z,12.23
2017-11-30T16:28:25.007Z,13.18
2017-11-30T16:31:35.064Z,14.27
2017-11-30T16:34:44.823Z,11.10
2017-11-30T16:37:54.907Z,11.80
2017-11-30T16:41:04.711Z,11.27
2017-11-30T16:44:14.575Z,11.77
2017-11-30T16:47:25.209Z,12.35
2017-11-30T16:50:35.695Z,10.77
2017-11-30T16:53:45.944Z,11.30
2017-11-30T16:56:55.953Z,12.65
2017-11-30T17:00:06.799Z,12.35
2017-11-30T17:03:17.082Z,12.65
2017-11-30T17:06:26.950Z,12.95
2017-11-30T17:09:36.908Z,15.15
2017-11-30T17:12:46.814Z,13.68
2017-11-30T17:15:56.579Z,9.75
2017-11-30T17:19:06.464Z,14.10
2017-11-30T17:22:16.408Z,12.02
2017-11-30T17:25:26.367Z,15.48
2017-11-30T17:28:36.367Z,16.27
2017-11-30T17:31:46.139Z,16.35
2017-11-30T17:34:56.138Z,14.13
2017-11-30T17:38:06.195Z,12.27
2017-11-30T17:41:16.154Z,12.80
2017-11-30T17:44:26.298Z,13.65
2017-11-30T17:47:36.271Z,13.00
2017-11-30T17:50:46.500Z,12.85
2017-11-30T17:53:56.536Z,18.35
2017-11-30T17:57:06.557Z,13.68
2017-11-30T18:00:16.787Z,14.23
2017-11-30T18:03:27.003Z,12.05
2017-11-30T18:06:37.111Z,14.13
2017-11-30T18:09:47.169Z,16.25
2017-11-30T18:12:57.423Z,15.75
2017-11-30T18:16:07.429Z,13.52
2017-11-30T18:19:18.130Z,15.30
2017-11-30T18:22:28.200Z,12.02
2017-11-30T18:25:39.038Z,14.27
2017-11-30T18:28:49.051Z,11.18
2017-11-30T18:31:59.839Z,12.68
2017-11-30T18:35:09.844Z,19.48
2017-11-30T18:38:19.367Z,19.00
2017-11-30T18:41:29.082Z,19.37
2017-11-30T18:44:39.574Z,19.90
2017-11-30T18:47:49.664Z,20.60
2017-11-30T18:50:59.503Z,17.83
2017-11-30T18:54:09.263Z,20.90
2017-11-30T18:57:19.838Z,22.75
2017-11-30T19:00:30.019Z,20.55
2017-11-30T19:03:41.697Z,23.45
2017-11-30T19:06:52.344Z,16.98
2017-11-30T19:10:02.262Z,20.02
2017-11-30T19:13:12.083Z,21.15
2017-11-30T19:16:21.932Z,16.87
2017-11-30T19:19:31.815Z,19.60
2017-11-30T19:22:42.442Z,23.05
2017-11-30T19:25:53.204Z,27.37
2017-11-30T19:29:03.767Z,28.17
2017-11-30T19:32:13.647Z,31.02
2017-11-30T19:35:24.238Z,25.77
2017-11-30T19:38:34.074Z,32.05
2017-11-30T19:41:44.023Z,30.30
2017-11-30T19:44:53.811Z,23.17
2017-11-30T19:48:03.710Z,18.27
2017-11-30T19:51:13.598Z,13.45
2017-11-30T19:54:23.601Z,12.63
2017-11-30T19:57:33.411Z,13.98
2017-11-30T20:00:43.300Z,12.95
2017-11-30T20:03:53.907Z,17.87
2017-11-30T20:07:03.798Z,17.55
2017-11-30T20:10:13.685Z,19.37
2017-11-30T20:13:23.424Z,28.15
2017-11-30T20:16:33.692Z,25.70
2017-11-30T20:19:44.102Z,40.65
2017-11-30T20:22:54.256Z,17.67
2017-11-30T20:26:05.362Z,16.10
2017-11-30T20:29:17.078Z,18.52
2017-11-30T20:32:26.992Z,12.93
2017-11-30T20:35:37.704Z,11.95
2017-11-30T20:38:47.830Z,12.80
2017-11-30T20:41:57.597Z,11.07
2017-11-30T20:45:07.534Z,10.65
2017-11-30T20:48:17.430Z,13.90
2017-11-30T20:51:28.150Z,13.40
2017-11-30T20:54:38.275Z,18.98
2017-11-30T20:57:48.026Z,17.92
2017-11-30T21:00:57.832Z,18.33
2017-11-30T21:04:07.653Z,13.50
2017-11-30T21:07:17.541Z,13.82
2017-11-30T21:10:27.798Z,12.95
2017-11-30T21:13:37.875Z,12.05
2017-11-30T21:16:48.490Z,13.77
2017-11-30T21:19:58.469Z,10.23
2017-11-30T21:23:08.912Z,14.15
2017-11-30T21:26:19.475Z,13.65
2017-11-30T21:29:30.072Z,13.75
2017-11-30T21:32:39.940Z,12.27
2017-11-30T21:35:50.123Z,16.55
2017-11-30T21:39:00.345Z,17.27
2017-11-30T21:42:11.143Z,13.60
2017-11-30T21:45:21.258Z,10.35
2017-11-30T21:48:31.461Z,12.37
2017-11-30T21:51:42.072Z,10.73
2017-11-30T21:54:52.283Z,11.40
2017-11-30T21:58:01.986Z,12.15
2017-11-30T22:01:11.918Z,11.12
2017-11-30T22:04:22.086Z,12.35
2017-11-30T22:07:32.007Z,13.80
2017-11-30T22:10:41.641Z,17.23
2017-11-30T22:13:52.451Z,20.48
2017-11-30T22:17:02.714Z,15.85
2017-11-30T22:20:12.667Z,12.80
2017-11-30T22:23:23.170Z,11.07
2017-11-30T22:26:33.281Z,11.25
2017-11-30T22:29:43.279Z,10.45
2017-11-30T22:32:54.015Z,9.48
2017-11-30T22:36:04.329Z,12.45
2017-11-30T22:39:14.110Z,10.00
2017-11-30T22:42:25.257Z,9.90
2017-11-30T22:45:36.400Z,11.20
2017-11-30T22:48:46.122Z,8.60
2017-11-30T22:51:55.990Z,8.98
2017-11-30T22:55:06.573Z,12.25
2017-11-30T22:58:17.204Z,11.23
2017-11-30T23:01:27.230Z,9.50
2017-11-30T23:04:37.698Z,11.35
2017-11-30T23:07:47.876Z,9.57
2017-11-30T23:10:57.666Z,13.38
2017-11-30T23:14:08.249Z,12.43
2017-11-30T23:17:18.408Z,10.32
2017-11-30T23:20:28.486Z,11.40
2017-11-30T23:23:38.516Z,11.00
2017-11-30T23:26:49.353Z,10.57
2017-11-30T23:29:59.622Z,10.93
2017-11-30T23:33:09.909Z,11.38
2017-11-30T23:36:19.521Z,12.13
2017-11-30T23:39:29.892Z,10.57
2017-11-30T23:42:39.847Z,9.38
2017-11-30T23:45:49.243Z,11.27
2017-11-30T23:48:59.480Z,12.00
2017-11-30T23:52:09.800Z,9.50
2017-11-30T23:55:20.328Z,11.90
2017-11-30T23:58:30.259Z,11.02
